createdAt,value
2022-12-29T00:01:56.584Z,38.45
2022-12-29T00:04:25.785Z,35.85
2022-12-29T00:06:55.719Z,39.70
2022-12-29T00:09:27.756Z,35.92
2022-12-29T00:11:56.840Z,35.47
2022-12-29T00:14:43.250Z,33.20
2022-12-29T00:17:12.391Z,38.55
2022-12-29T00:19:59.446Z,35.40
2022-12-29T00:22:46.097Z,40.72
2022-12-29T00:25:35.133Z,40.35
2022-12-29T00:28:21.815Z,40.00
2022-12-29T00:31:08.482Z,46.17
2022-12-29T00:33:55.100Z,33.45
2022-12-29T00:36:29.805Z,34.75
2022-12-29T00:39:22.622Z,33.42
2022-12-29T00:42:10.634Z,39.83
2022-12-29T00:44:40.033Z,35.35
2022-12-29T00:47:09.187Z,34.50
2022-12-29T00:49:37.498Z,38.97
2022-12-29T00:52:09.322Z,41.72
2022-12-29T00:54:40.152Z,39.80
2022-12-29T00:57:13.236Z,44.25
2022-12-29T00:59:44.467Z,41.83
2022-12-29T01:02:14.173Z,35.85
2022-12-29T01:04:43.503Z,43.75
2022-12-29T01:07:12.645Z,34.75
2022-12-29T01:09:59.165Z,36.75
2022-12-29T01:12:46.119Z,35.40
2022-12-29T01:15:17.137Z,38.35
2022-12-29T01:17:47.531Z,29.63
2022-12-29T01:20:16.970Z,39.88
2022-12-29T01:22:46.121Z,34.42
2022-12-29T01:25:15.674Z,32.15
2022-12-29T01:27:46.630Z,31.30
2022-12-29T01:30:15.854Z,31.15
2022-12-29T01:32:45.010Z,35.15
2022-12-29T01:35:17.112Z,35.33
2022-12-29T01:37:47.525Z,35.63
2022-12-29T01:40:17.953Z,30.42
2022-12-29T01:42:49.617Z,30.95
2022-12-29T01:45:20.248Z,31.25
2022-12-29T01:47:55.520Z,32.85
2022-12-29T01:50:30.906Z,32.10
2022-12-29T01:53:06.406Z,35.10
2022-12-29T01:55:42.611Z,30.60
2022-12-29T01:58:15.842Z,32.03
2022-12-29T02:00:45.164Z,41.38
2022-12-29T02:03:14.735Z,34.38
2022-12-29T02:05:50.074Z,34.40
2022-12-29T02:08:19.824Z,33.50
2022-12-29T02:10:50.389Z,35.90
2022-12-29T02:13:20.955Z,28.83
2022-12-29T02:16:01.378Z,36.08
2022-12-29T02:18:43.801Z,30.02
2022-12-29T02:21:50.353Z,32.97
2022-12-29T02:25:31.560Z,30.55
2022-12-29T02:31:08.376Z,33.72
2022-12-29T02:33:54.017Z,31.58
2022-12-29T02:36:31.325Z,33.88
2022-12-29T02:39:11.549Z,32.60
2022-12-29T02:41:53.639Z,30.73
2022-12-29T02:44:35.515Z,29.02
2022-12-29T02:47:16.549Z,32.55
2022-12-29T02:49:56.350Z,30.85
2022-12-29T02:52:32.498Z,37.33
2022-12-29T02:55:01.132Z,34.28
2022-12-29T02:57:37.551Z,32.28
2022-12-29T03:00:11.231Z,36.23
2022-12-29T03:03:25.024Z,35.42
2022-12-29T03:06:13.917Z,37.00
2022-12-29T03:08:51.245Z,38.70
2022-12-29T03:11:37.972Z,41.85
2022-12-29T03:14:34.221Z,29.53
2022-12-29T03:17:11.436Z,41.55
2022-12-29T03:19:49.913Z,39.45
2022-12-29T03:22:31.927Z,38.20
2022-12-29T03:25:11.963Z,44.70
2022-12-29T03:27:46.905Z,36.10
2022-12-29T03:30:17.030Z,39.05
2022-12-29T03:32:51.218Z,34.30
2022-12-29T03:35:27.182Z,29.88
2022-12-29T03:38:05.295Z,30.58
2022-12-29T03:40:36.823Z,31.73
2022-12-29T03:43:06.941Z,32.80
2022-12-29T03:45:39.092Z,34.45
2022-12-29T03:48:08.429Z,31.42
2022-12-29T03:50:42.064Z,33.58
2022-12-29T03:53:12.020Z,34.15
2022-12-29T03:55:42.423Z,34.30
2022-12-29T03:58:13.067Z,33.53
2022-12-29T04:01:14.580Z,30.52
2022-12-29T04:03:43.869Z,35.83
2022-12-29T04:06:14.834Z,31.65
2022-12-29T04:08:50.889Z,29.42
2022-12-29T04:11:20.177Z,32.17
2022-12-29T04:13:49.514Z,28.02
2022-12-29T04:16:23.235Z,29.42
2022-12-29T04:18:53.406Z,26.55
2022-12-29T04:21:24.930Z,35.00
2022-12-29T04:23:54.339Z,34.63
2022-12-29T04:26:23.461Z,36.30
2022-12-29T04:28:59.549Z,22.33
2022-12-29T04:31:37.692Z,28.50
2022-12-29T04:34:07.161Z,30.42
2022-12-29T04:36:37.851Z,28.17
2022-12-29T04:39:07.826Z,29.55
2022-12-29T04:41:38.233Z,28.52
2022-12-29T04:44:09.706Z,30.05
2022-12-29T04:47:11.305Z,28.63
2022-12-29T04:50:18.896Z,34.45
2022-12-29T04:52:59.055Z,32.40
2022-12-29T04:55:29.402Z,32.53
2022-12-29T04:57:58.659Z,38.80
2022-12-29T05:00:29.346Z,37.25
2022-12-29T05:03:02.594Z,43.50
2022-12-29T05:05:32.575Z,40.63
2022-12-29T05:08:05.639Z,39.45
2022-12-29T05:10:34.978Z,43.00
2022-12-29T05:13:13.363Z,36.92
2022-12-29T05:15:51.354Z,35.53
2022-12-29T05:18:21.375Z,33.88
2022-12-29T05:20:51.875Z,35.88
2022-12-29T05:23:24.568Z,30.95
2022-12-29T05:26:07.177Z,34.67
2022-12-29T05:29:09.366Z,29.38
2022-12-29T05:31:38.660Z,33.70
2022-12-29T05:34:09.194Z,31.25
2022-12-29T05:36:38.429Z,32.65
2022-12-29T05:39:11.625Z,35.67
2022-12-29T05:41:40.985Z,32.17
2022-12-29T05:44:35.859Z,34.63
2022-12-29T05:47:27.183Z,27.63
2022-12-29T05:50:14.966Z,27.58
2022-12-29T05:55:33.031Z,28.30
2022-12-29T05:58:02.619Z,24.75
2022-12-29T06:00:31.825Z,27.38
2022-12-29T06:03:02.158Z,32.38
2022-12-29T06:05:31.432Z,30.85
2022-12-29T06:08:00.922Z,27.92
2022-12-29T06:10:32.143Z,28.20
2022-12-29T06:13:11.177Z,37.13
2022-12-29T06:15:45.233Z,30.58
2022-12-29T06:18:19.616Z,31.75
2022-12-29T06:20:52.143Z,30.17
2022-12-29T06:23:21.687Z,31.85
2022-12-29T06:25:52.439Z,28.70
2022-12-29T06:28:21.789Z,33.15
2022-12-29T06:30:51.193Z,35.92
2022-12-29T06:33:22.061Z,32.17
2022-12-29T06:35:51.244Z,28.55
2022-12-29T06:38:20.671Z,29.80
2022-12-29T06:40:51.191Z,37.60
2022-12-29T06:43:23.156Z,55.15
2022-12-29T06:46:21.830Z,41.88
2022-12-29T06:48:51.349Z,43.70
2022-12-29T06:51:20.499Z,41.58
2022-12-29T06:53:50.243Z,37.97
2022-12-29T06:56:22.456Z,41.50
2022-12-29T06:58:52.377Z,46.00
2022-12-29T07:01:21.758Z,40.22
2022-12-29T07:03:51.479Z,47.05
2022-12-29T07:06:20.861Z,42.25
2022-12-29T07:08:50.098Z,38.83
2022-12-29T07:11:19.635Z,43.50
2022-12-29T07:13:53.223Z,34.83
2022-12-29T07:16:23.028Z,36.78
2022-12-29T07:18:52.732Z,41.85
2022-12-29T07:21:22.952Z,38.42
2022-12-29T07:23:53.373Z,41.72
2022-12-29T07:26:22.915Z,35.85
2022-12-29T07:28:53.613Z,34.63
2022-12-29T07:31:25.503Z,33.45
2022-12-29T07:33:55.139Z,31.63
2022-12-29T07:36:27.996Z,32.05
2022-12-29T07:39:00.157Z,35.35
2022-12-29T07:41:30.169Z,35.00
2022-12-29T07:44:00.965Z,30.60
2022-12-29T07:46:59.419Z,32.72
2022-12-29T07:49:29.771Z,30.50
2022-12-29T07:51:58.999Z,30.77
2022-12-29T07:54:28.780Z,31.75
2022-12-29T07:56:58.595Z,29.83
2022-12-29T07:59:29.743Z,29.52
2022-12-29T08:01:59.190Z,30.25
2022-12-29T08:04:28.678Z,24.27
2022-12-29T08:06:58.380Z,27.48
2022-12-29T08:09:27.686Z,24.70
2022-12-29T08:11:57.545Z,25.13
2022-12-29T08:14:28.633Z,28.83
2022-12-29T08:16:57.780Z,28.65
2022-12-29T08:19:27.389Z,30.60
2022-12-29T08:21:57.045Z,34.15
2022-12-29T08:24:26.310Z,33.60
2022-12-29T08:26:56.085Z,40.25
2022-12-29T08:29:25.718Z,36.78
2022-12-29T08:31:56.585Z,30.50
2022-12-29T08:34:26.253Z,30.30
2022-12-29T08:36:55.739Z,30.63
2022-12-29T08:39:25.127Z,36.00
2022-12-29T08:41:54.245Z,32.83
2022-12-29T08:44:24.278Z,34.40
2022-12-29T08:46:55.390Z,32.30
2022-12-29T08:49:24.859Z,49.00
2022-12-29T08:51:54.186Z,30.30
2022-12-29T08:54:24.011Z,33.35
2022-12-29T08:56:54.804Z,38.83
2022-12-29T08:59:28.594Z,30.17
2022-12-29T09:02:00.417Z,31.42
2022-12-29T09:04:30.132Z,41.92
2022-12-29T09:06:59.527Z,34.50
2022-12-29T09:09:28.613Z,31.48
2022-12-29T09:12:02.964Z,30.17
2022-12-29T09:14:32.177Z,30.05
2022-12-29T09:17:20.404Z,30.05
2022-12-29T09:19:49.749Z,27.52
2022-12-29T09:22:19.011Z,33.40
2022-12-29T09:24:48.275Z,28.13
2022-12-29T09:27:18.104Z,24.20
2022-12-29T09:29:47.719Z,23.73
2022-12-29T09:32:19.028Z,24.85
2022-12-29T09:34:49.373Z,25.77
2022-12-29T09:37:18.665Z,22.45
2022-12-29T09:39:54.114Z,26.92
2022-12-29T09:42:32.188Z,30.88
2022-12-29T09:45:16.338Z,33.38
2022-12-29T09:47:48.449Z,23.45
2022-12-29T09:50:26.863Z,36.65
2022-12-29T09:53:03.773Z,21.33
2022-12-29T09:55:39.175Z,23.05
2022-12-29T09:58:19.702Z,22.33
2022-12-29T10:00:56.245Z,26.05
2022-12-29T10:03:30.396Z,22.45
2022-12-29T10:06:13.000Z,27.80
2022-12-29T10:08:48.701Z,25.20
2022-12-29T10:11:33.291Z,29.38
2022-12-29T10:14:23.048Z,30.55
2022-12-29T10:17:02.735Z,26.45
2022-12-29T10:19:57.109Z,23.00
2022-12-29T10:22:47.711Z,27.88
2022-12-29T10:25:21.506Z,23.27
2022-12-29T10:27:52.962Z,23.92
2022-12-29T10:30:22.652Z,23.00
2022-12-29T10:32:56.348Z,21.13
2022-12-29T10:35:33.162Z,23.33
2022-12-29T10:38:08.107Z,24.63
2022-12-29T10:40:44.696Z,25.17
2022-12-29T10:43:27.780Z,25.73
2022-12-29T10:46:04.459Z,16.17
2022-12-29T10:48:37.693Z,18.70
2022-12-29T10:51:10.927Z,19.40
2022-12-29T10:53:47.990Z,17.83
2022-12-29T10:56:31.764Z,18.25
2022-12-29T10:59:08.470Z,23.48
2022-12-29T11:01:49.130Z,18.83
2022-12-29T11:04:37.869Z,17.48
2022-12-29T11:07:15.901Z,14.60
2022-12-29T11:09:47.221Z,16.90
2022-12-29T11:12:27.337Z,14.73
2022-12-29T11:15:17.515Z,16.42
2022-12-29T11:17:50.465Z,17.45
2022-12-29T11:20:38.732Z,21.30
2022-12-29T11:23:31.198Z,18.23
2022-12-29T11:26:31.780Z,18.33
2022-12-29T11:29:24.287Z,17.20
2022-12-29T11:31:56.562Z,15.15
2022-12-29T11:34:28.757Z,17.20
2022-12-29T11:37:04.779Z,17.20
2022-12-29T11:39:43.332Z,18.40
2022-12-29T11:42:22.593Z,18.65
2022-12-29T11:44:53.742Z,18.08
2022-12-29T11:47:30.063Z,23.02
2022-12-29T11:50:02.828Z,18.88
2022-12-29T11:52:37.412Z,20.08
2022-12-29T11:55:23.289Z,20.67
2022-12-29T11:57:55.504Z,23.15
2022-12-29T12:00:30.293Z,20.60
2022-12-29T12:03:02.196Z,29.75
2022-12-29T12:05:40.916Z,18.08
2022-12-29T12:08:21.317Z,15.48
2022-12-29T12:11:01.154Z,21.65
2022-12-29T12:13:37.460Z,18.40
2022-12-29T12:16:12.126Z,15.50
2022-12-29T12:18:49.420Z,15.23
2022-12-29T12:21:27.559Z,19.98
2022-12-29T12:24:16.368Z,19.92
2022-12-29T12:27:00.997Z,14.68
2022-12-29T12:29:40.074Z,18.75
2022-12-29T12:32:19.597Z,16.70
2022-12-29T12:34:51.233Z,16.40
2022-12-29T12:38:03.012Z,12.82
2022-12-29T12:41:15.511Z,12.93
2022-12-29T12:43:53.989Z,9.45
2022-12-29T12:47:05.098Z,7.93
2022-12-29T12:50:29.285Z,8.57
2022-12-29T12:53:24.597Z,7.18
2022-12-29T12:56:21.719Z,9.48
2022-12-29T12:59:07.326Z,5.90
2022-12-29T13:04:53.365Z,7.18
2022-12-29T13:07:36.643Z,5.85
2022-12-29T13:10:28.374Z,6.28
2022-12-29T13:13:18.909Z,7.65
2022-12-29T13:15:56.799Z,4.47
2022-12-29T13:18:37.580Z,9.25
2022-12-29T13:21:16.934Z,5.43
2022-12-29T13:23:56.972Z,7.32
2022-12-29T13:26:34.713Z,7.13
2022-12-29T13:29:14.831Z,6.45
2022-12-29T13:31:58.013Z,5.15
2022-12-29T13:34:38.840Z,5.68
2022-12-29T13:37:16.105Z,6.82
2022-12-29T13:39:52.474Z,5.18
2022-12-29T13:42:23.568Z,7.18
2022-12-29T13:45:02.001Z,5.07
2022-12-29T13:47:38.981Z,5.00
2022-12-29T13:50:17.834Z,7.45
2022-12-29T13:52:57.900Z,5.40
2022-12-29T13:55:32.052Z,5.10
2022-12-29T13:58:12.033Z,5.00
2022-12-29T14:00:52.044Z,6.25
2022-12-29T14:03:51.520Z,8.45
2022-12-29T14:06:29.228Z,7.22
2022-12-29T14:09:01.581Z,9.30
2022-12-29T14:11:36.780Z,9.07
2022-12-29T14:14:16.027Z,5.22
2022-12-29T14:16:46.956Z,5.88
2022-12-29T14:19:21.775Z,6.22
2022-12-29T14:21:57.570Z,8.23
2022-12-29T14:24:42.168Z,4.18
2022-12-29T14:27:53.639Z,6.78
2022-12-29T14:30:52.678Z,6.45
2022-12-29T14:33:24.786Z,5.57
2022-12-29T14:35:56.650Z,8.23
2022-12-29T14:38:32.646Z,5.07
2022-12-29T14:41:39.142Z,6.55
2022-12-29T14:44:21.516Z,6.30
2022-12-29T14:47:00.254Z,9.32
2022-12-29T14:49:33.830Z,8.65
2022-12-29T14:52:22.516Z,10.77
2022-12-29T14:55:03.701Z,5.63
2022-12-29T14:57:38.687Z,5.13
2022-12-29T15:00:17.930Z,7.03
2022-12-29T15:02:51.920Z,8.48
2022-12-29T15:05:34.778Z,7.32
2022-12-29T15:08:06.745Z,10.23
2022-12-29T15:10:43.225Z,8.98
2022-12-29T15:13:23.469Z,8.82
2022-12-29T15:15:53.849Z,8.93
2022-12-29T15:18:31.216Z,8.32
2022-12-29T15:21:03.317Z,18.77
2022-12-29T15:23:37.061Z,20.08
2022-12-29T15:26:08.778Z,14.43
2022-12-29T15:28:43.639Z,11.70
2022-12-29T15:31:16.525Z,9.07
2022-12-29T15:33:48.850Z,9.20
2022-12-29T15:36:24.666Z,7.43
2022-12-29T15:38:55.571Z,8.63
2022-12-29T15:41:33.379Z,11.25
2022-12-29T15:44:17.729Z,7.30
2022-12-29T15:46:46.954Z,9.85
2022-12-29T15:49:17.477Z,14.43
2022-12-29T15:51:47.311Z,12.90
2022-12-29T15:54:20.725Z,10.73
2022-12-29T15:56:52.271Z,14.07
2022-12-29T15:59:31.390Z,17.50
2022-12-29T16:02:07.127Z,23.80
2022-12-29T16:05:01.650Z,13.80
2022-12-29T16:07:39.130Z,14.80
2022-12-29T16:10:31.445Z,15.80
2022-12-29T16:13:07.807Z,13.63
2022-12-29T16:15:37.162Z,14.20
2022-12-29T16:18:06.655Z,13.25
2022-12-29T16:20:43.410Z,17.42
2022-12-29T16:23:22.331Z,16.83
2022-12-29T16:25:55.635Z,17.95
2022-12-29T16:28:27.615Z,17.27
2022-12-29T16:31:04.589Z,14.27
2022-12-29T16:33:49.851Z,21.52
2022-12-29T16:36:33.109Z,18.98
2022-12-29T16:39:28.236Z,20.00
2022-12-29T16:41:59.439Z,17.75
2022-12-29T16:44:31.344Z,13.10
2022-12-29T16:47:21.702Z,14.80
2022-12-29T16:49:55.271Z,19.60
2022-12-29T16:52:32.319Z,15.45
2022-12-29T16:55:03.323Z,14.65
2022-12-29T16:57:38.529Z,13.90
2022-12-29T17:00:20.479Z,17.27
2022-12-29T17:02:51.455Z,23.15
2022-12-29T17:05:21.496Z,23.00
2022-12-29T17:07:52.367Z,22.55
2022-12-29T17:10:21.729Z,21.60
2022-12-29T17:12:52.397Z,24.67
2022-12-29T17:15:28.557Z,23.20
2022-12-29T17:17:58.553Z,18.52
2022-12-29T17:20:30.689Z,16.98
2022-12-29T17:23:00.802Z,20.17
2022-12-29T17:25:36.113Z,19.42
2022-12-29T17:28:15.052Z,18.15
2022-12-29T17:30:44.493Z,27.23
2022-12-29T17:33:18.261Z,21.40
2022-12-29T17:35:53.237Z,18.00
2022-12-29T17:38:29.723Z,24.15
2022-12-29T17:40:59.867Z,14.40
2022-12-29T17:43:36.758Z,12.80
2022-12-29T17:46:09.140Z,13.95
2022-12-29T17:48:38.639Z,12.45
2022-12-29T17:51:08.354Z,13.35
2022-12-29T17:53:37.520Z,21.90
2022-12-29T17:56:07.548Z,16.65
2022-12-29T17:58:38.122Z,17.75
2022-12-29T18:01:08.386Z,25.60
2022-12-29T18:03:41.977Z,24.73
2022-12-29T18:06:13.414Z,20.50
2022-12-29T18:08:44.069Z,23.70
2022-12-29T18:11:32.069Z,17.45
2022-12-29T18:14:02.693Z,16.58
2022-12-29T18:16:32.320Z,14.68
2022-12-29T18:19:01.485Z,12.00
2022-12-29T18:21:30.669Z,17.08
2022-12-29T18:24:00.135Z,21.50
2022-12-29T18:26:35.591Z,20.85
2022-12-29T18:29:06.322Z,22.67
2022-12-29T18:31:36.764Z,17.10
2022-12-29T18:34:15.783Z,22.02
2022-12-29T18:36:45.088Z,28.65
2022-12-29T18:39:14.182Z,23.52
2022-12-29T18:41:43.402Z,25.83
2022-12-29T18:44:15.095Z,25.55
2022-12-29T18:46:44.429Z,29.60
2022-12-29T18:49:15.159Z,30.92
2022-12-29T18:51:44.473Z,61.15
2022-12-29T18:54:29.249Z,32.45
2022-12-29T18:56:59.482Z,28.50
2022-12-29T18:59:30.203Z,26.05
2022-12-29T19:01:59.427Z,26.70
2022-12-29T19:04:29.802Z,25.67
2022-12-29T19:06:59.432Z,25.00
2022-12-29T19:09:30.784Z,27.95
2022-12-29T19:12:00.063Z,29.10
2022-12-29T19:14:31.508Z,29.63
2022-12-29T19:17:00.757Z,28.50
2022-12-29T19:19:30.257Z,28.85
2022-12-29T19:21:59.654Z,31.15
2022-12-29T19:24:29.999Z,32.58
2022-12-29T19:26:59.392Z,32.05
2022-12-29T19:29:30.721Z,29.58
2022-12-29T19:32:00.160Z,30.15
2022-12-29T19:34:31.632Z,29.92
2022-12-29T19:37:01.378Z,34.03
2022-12-29T19:39:36.187Z,31.80
2022-12-29T19:42:05.944Z,31.77
2022-12-29T19:44:37.021Z,35.58
2022-12-29T19:47:25.610Z,31.63
2022-12-29T19:49:58.079Z,31.27
2022-12-29T19:52:29.932Z,37.60
2022-12-29T19:55:01.510Z,35.50
2022-12-29T19:57:32.769Z,36.08
2022-12-29T20:00:05.086Z,31.60
2022-12-29T20:02:41.801Z,29.65
2022-12-29T20:05:12.471Z,28.45
2022-12-29T20:07:44.997Z,31.05
2022-12-29T20:10:14.823Z,31.00
2022-12-29T20:12:44.359Z,30.25
2022-12-29T20:15:16.546Z,32.03
2022-12-29T20:20:45.674Z,33.83
2022-12-29T20:23:15.987Z,45.13
2022-12-29T20:25:56.279Z,37.15
2022-12-29T20:28:27.613Z,43.78
2022-12-29T20:31:01.954Z,43.13
2022-12-29T20:33:33.787Z,37.25
2022-12-29T20:36:09.505Z,42.15
2022-12-29T20:38:40.089Z,38.63
2022-12-29T20:41:18.159Z,37.78
2022-12-29T20:43:49.356Z,40.70
2022-12-29T20:46:32.858Z,35.58
2022-12-29T20:49:05.460Z,41.28
2022-12-29T20:52:04.578Z,41.47
2022-12-29T20:54:26.651Z,44.55
2022-12-29T20:56:56.246Z,41.88
2022-12-29T20:59:29.547Z,41.72
2022-12-29T21:02:01.949Z,39.42
2022-12-29T21:04:49.942Z,43.35
2022-12-29T21:07:21.910Z,39.30
2022-12-29T21:09:51.835Z,43.75
2022-12-29T21:12:21.390Z,45.10
2022-12-29T21:14:51.846Z,42.63
2022-12-29T21:17:22.729Z,37.28
2022-12-29T21:19:52.665Z,42.38
2022-12-29T21:22:22.278Z,41.55
2022-12-29T21:24:54.132Z,40.92
2022-12-29T21:27:24.197Z,41.92
2022-12-29T21:29:54.769Z,44.50
2022-12-29T21:32:25.689Z,50.03
2022-12-29T21:34:55.769Z,42.53
2022-12-29T21:37:25.104Z,35.78
2022-12-29T21:39:55.319Z,33.25
2022-12-29T21:42:28.976Z,36.20
2022-12-29T21:45:20.426Z,33.78
2022-12-29T21:48:10.593Z,36.97
2022-12-29T21:50:57.830Z,34.15
2022-12-29T21:53:37.917Z,39.45
2022-12-29T21:56:11.160Z,34.35
2022-12-29T21:59:00.458Z,37.13
2022-12-29T22:01:50.782Z,33.85
2022-12-29T22:04:43.668Z,33.28
2022-12-29T22:07:32.086Z,38.05
2022-12-29T22:10:18.892Z,34.65
2022-12-29T22:13:01.132Z,36.40
2022-12-29T22:15:32.937Z,38.45
2022-12-29T22:18:04.372Z,29.08
2022-12-29T22:20:37.322Z,35.85
2022-12-29T22:23:10.027Z,36.92
2022-12-29T22:25:41.287Z,35.63
2022-12-29T22:28:10.570Z,34.60
2022-12-29T22:30:39.731Z,32.13
2022-12-29T22:33:09.278Z,29.65
2022-12-29T22:35:39.969Z,27.08
2022-12-29T22:38:09.117Z,31.63
2022-12-29T22:40:38.422Z,29.73
2022-12-29T22:43:12.902Z,34.75
2022-12-29T22:45:43.034Z,30.35
2022-12-29T22:48:12.372Z,37.35
2022-12-29T22:50:43.087Z,32.83
2022-12-29T22:53:12.586Z,34.17
2022-12-29T22:55:41.754Z,38.42
2022-12-29T22:58:10.889Z,32.20
2022-12-29T23:00:40.221Z,43.10
2022-12-29T23:03:09.504Z,40.35
2022-12-29T23:05:38.874Z,38.78
2022-12-29T23:08:10.935Z,33.45
2022-12-29T23:10:40.093Z,39.65
2022-12-29T23:13:09.201Z,32.38
2022-12-29T23:15:38.573Z,32.50
2022-12-29T23:18:08.032Z,31.77
2022-12-29T23:20:37.439Z,33.85
2022-12-29T23:23:06.686Z,38.65
2022-12-29T23:25:38.821Z,37.08
2022-12-29T23:28:10.095Z,33.72
2022-12-29T23:30:39.232Z,35.42
2022-12-29T23:33:08.336Z,37.22
2022-12-29T23:35:37.423Z,37.10
2022-12-29T23:38:06.643Z,36.92
2022-12-29T23:40:37.311Z,34.95
2022-12-29T23:43:06.485Z,35.05
2022-12-29T23:45:37.297Z,31.55
2022-12-29T23:48:07.636Z,33.47
2022-12-29T23:50:40.146Z,32.80
2022-12-29T23:53:10.604Z,37.10
2022-12-29T23:55:44.786Z,38.15
2022-12-29T23:58:13.963Z,30.70
